createdAt,value
2019-05-12T00:01:33.369Z,83.30
2019-05-12T00:04:05.634Z,83.90
2019-05-12T00:06:38.738Z,85.20
2019-05-12T00:09:10.393Z,85.30
2019-05-12T00:11:42.237Z,85.40
2019-05-12T00:14:14.305Z,85.80
2019-05-12T00:16:48.930Z,85.70
2019-05-12T00:19:19.057Z,85.60
2019-05-12T00:21:50.964Z,85.10
2019-05-12T00:24:22.482Z,84.90
2019-05-12T00:26:57.743Z,83.70
2019-05-12T00:29:28.784Z,82.60
2019-05-12T00:32:00.565Z,82.20
2019-05-12T00:34:32.169Z,82.00
2019-05-12T00:37:04.008Z,82.00
2019-05-12T00:39:38.115Z,81.50
2019-05-12T00:42:08.882Z,80.70
2019-05-12T00:44:40.540Z,80.30
2019-05-12T00:47:12.327Z,80.10
2019-05-12T00:49:43.869Z,80.10
2019-05-12T00:52:15.342Z,79.80
2019-05-12T00:54:48.403Z,79.60
2019-05-12T00:57:19.981Z,79.30
2019-05-12T00:59:51.690Z,79.20
2019-05-12T01:02:23.435Z,79.00
2019-05-12T01:04:58.104Z,79.10
2019-05-12T01:07:29.977Z,79.00
2019-05-12T01:10:04.860Z,78.90
2019-05-12T01:12:34.784Z,78.70
2019-05-12T01:15:07.581Z,78.50
2019-05-12T01:17:40.522Z,78.50
2019-05-12T01:20:12.281Z,78.10
2019-05-12T01:22:44.037Z,78.00
2019-05-12T01:25:17.479Z,77.80
2019-05-12T01:27:48.712Z,77.60
2019-05-12T01:30:20.120Z,77.60
2019-05-12T01:32:51.842Z,77.50
2019-05-12T01:35:23.462Z,77.10
2019-05-12T01:37:55.009Z,76.80
2019-05-12T01:40:28.579Z,76.00
2019-05-12T01:42:59.885Z,75.00
2019-05-12T01:45:31.833Z,75.70
2019-05-12T01:48:03.207Z,75.90
2019-05-12T01:50:34.674Z,75.80
2019-05-12T01:53:07.897Z,75.60
2019-05-12T01:55:39.371Z,75.50
2019-05-12T01:58:11.040Z,74.80
2019-05-12T02:00:42.760Z,74.20
2019-05-12T02:03:14.313Z,73.20
2019-05-12T02:05:48.851Z,73.40
2019-05-12T02:08:38.346Z,72.70
2019-05-12T02:11:28.906Z,71.70
2019-05-12T02:14:00.412Z,71.40
2019-05-12T02:16:32.192Z,71.80
2019-05-12T02:19:03.820Z,72.30
2019-05-12T02:21:38.050Z,72.70
2019-05-12T02:24:22.335Z,72.50
2019-05-12T02:26:41.473Z,71.70
2019-05-12T02:29:13.056Z,71.40
2019-05-12T02:31:44.874Z,68.70
2019-05-12T02:34:16.367Z,69.70
2019-05-12T02:36:48.006Z,69.10
2019-05-12T02:39:19.817Z,69.90
2019-05-12T02:41:54.067Z,70.20
2019-05-12T02:44:24.945Z,70.10
2019-05-12T02:46:56.717Z,69.40
2019-05-12T02:49:28.655Z,65.40
2019-05-12T02:52:00.146Z,68.10
2019-05-12T02:54:50.558Z,68.20
2019-05-12T02:57:05.296Z,66.80
2019-05-12T02:59:37.130Z,61.90
2019-05-12T03:02:08.791Z,65.20
2019-05-12T03:04:40.476Z,63.60
2019-05-12T03:07:15.395Z,64.60
2019-05-12T03:09:46.245Z,66.30
2019-05-12T03:12:17.962Z,67.10
2019-05-12T03:14:49.642Z,64.40
2019-05-12T03:17:24.912Z,64.60
2019-05-12T03:19:55.688Z,65.40
2019-05-12T03:22:27.680Z,61.20
2019-05-12T03:25:11.820Z,62.40
2019-05-12T03:27:34.890Z,64.80
2019-05-12T03:30:11.819Z,66.50
2019-05-12T03:32:38.813Z,65.80
2019-05-12T03:35:10.309Z,65.80
2019-05-12T03:37:45.151Z,65.70
2019-05-12T03:40:14.957Z,62.30
2019-05-12T03:42:46.380Z,60.70
2019-05-12T03:45:18.374Z,63.50
2019-05-12T03:47:49.922Z,63.90
2019-05-12T03:50:24.097Z,60.50
2019-05-12T03:52:56.596Z,62.50
2019-05-12T03:55:35.597Z,62.80
2019-05-12T03:58:00.441Z,64.40
2019-05-12T04:00:35.346Z,63.40
2019-05-12T04:03:05.262Z,59.90
2019-05-12T04:05:38.085Z,63.70
2019-05-12T04:08:10.874Z,62.10
2019-05-12T04:10:45.130Z,63.00
2019-05-12T04:13:15.447Z,63.10
2019-05-12T04:15:46.962Z,60.50
2019-05-12T04:18:18.610Z,61.70
2019-05-12T04:20:50.401Z,63.50
2019-05-12T04:23:24.532Z,63.10
2019-05-12T04:26:07.366Z,63.30
2019-05-12T04:28:27.449Z,63.60
2019-05-12T04:30:59.394Z,62.90
2019-05-12T04:33:30.769Z,64.00
2019-05-12T04:36:05.293Z,63.90
2019-05-12T04:38:35.624Z,63.20
2019-05-12T04:41:07.337Z,63.00
2019-05-12T04:43:38.804Z,62.80
2019-05-12T04:46:10.537Z,64.10
2019-05-12T04:48:45.028Z,64.60
2019-05-12T04:51:15.609Z,64.10
2019-05-12T04:53:47.386Z,61.10
2019-05-12T04:56:20.539Z,61.90
2019-05-12T04:58:54.600Z,62.90
2019-05-12T05:01:25.387Z,63.90
2019-05-12T05:03:57.528Z,64.80
2019-05-12T05:06:29.133Z,63.10
2019-05-12T05:09:01.516Z,63.00
2019-05-12T05:11:34.536Z,62.80
2019-05-12T05:14:06.826Z,61.90
2019-05-12T05:16:38.229Z,62.80
2019-05-12T05:19:09.896Z,62.00
2019-05-12T05:21:43.642Z,62.70
2019-05-12T05:24:14.536Z,61.30
2019-05-12T05:26:46.218Z,60.60
2019-05-12T05:29:17.659Z,60.90
2019-05-12T05:31:49.211Z,60.30
2019-05-12T05:34:23.449Z,59.00
2019-05-12T05:36:57.241Z,58.90
2019-05-12T05:39:27.149Z,59.70
2019-05-12T05:41:58.812Z,59.10
2019-05-12T05:44:36.349Z,60.00
2019-05-12T05:47:04.384Z,60.70
2019-05-12T05:49:36.075Z,59.00
2019-05-12T05:52:07.821Z,59.90
2019-05-12T05:54:40.158Z,58.50
2019-05-12T05:57:14.237Z,58.90
2019-05-12T05:59:45.225Z,59.30
2019-05-12T06:02:17.007Z,59.20
2019-05-12T06:04:49.820Z,57.70
2019-05-12T06:07:23.909Z,57.90
2019-05-12T06:09:55.043Z,58.20
2019-05-12T06:12:26.844Z,59.00
2019-05-12T06:14:59.946Z,59.30
2019-05-12T06:17:31.401Z,57.90
2019-05-12T06:20:04.343Z,56.60
2019-05-12T06:22:37.019Z,58.80
2019-05-12T06:25:08.736Z,58.10
2019-05-12T06:27:40.198Z,55.70
2019-05-12T06:30:14.846Z,58.50
2019-05-12T06:32:51.750Z,56.90
2019-05-12T06:35:23.939Z,55.20
2019-05-12T06:38:00.207Z,55.80
2019-05-12T06:40:30.838Z,57.60
2019-05-12T06:43:00.574Z,54.40
2019-05-12T06:45:33.995Z,56.20
2019-05-12T06:48:05.401Z,58.40
2019-05-12T06:50:39.359Z,54.90
2019-05-12T06:53:10.425Z,53.50
2019-05-12T06:55:43.327Z,56.60
2019-05-12T06:58:15.198Z,52.90
2019-05-12T07:00:47.061Z,52.00
2019-05-12T07:03:19.382Z,54.30
2019-05-12T07:05:53.354Z,55.70
2019-05-12T07:08:29.961Z,56.00
2019-05-12T07:11:05.458Z,56.60
2019-05-12T07:13:34.281Z,56.40
2019-05-12T07:16:21.828Z,51.70
2019-05-12T07:18:49.318Z,48.30
2019-05-12T07:21:24.007Z,48.40
2019-05-12T07:23:53.805Z,53.40
2019-05-12T07:26:25.868Z,52.50
2019-05-12T07:28:57.485Z,54.10
2019-05-12T07:31:29.104Z,50.40
2019-05-12T07:34:04.222Z,53.80
2019-05-12T07:36:34.305Z,48.70
2019-05-12T07:39:08.363Z,51.90
2019-05-12T07:41:42.400Z,53.30
2019-05-12T07:44:14.503Z,52.90
2019-05-12T07:46:49.457Z,54.10
2019-05-12T07:49:22.618Z,55.80
2019-05-12T07:51:54.207Z,54.30
2019-05-12T07:54:29.321Z,54.20
2019-05-12T07:57:03.752Z,54.40
2019-05-12T07:59:38.961Z,53.40
2019-05-12T08:02:04.383Z,51.20
2019-05-12T08:04:40.130Z,51.40
2019-05-12T08:07:09.805Z,53.80
2019-05-12T08:09:43.185Z,53.00
2019-05-12T08:12:16.310Z,47.70
2019-05-12T08:14:47.893Z,49.60
2019-05-12T08:17:19.792Z,48.70
2019-05-12T08:19:54.036Z,47.40
2019-05-12T08:22:29.283Z,49.60
2019-05-12T08:25:00.194Z,47.80
2019-05-12T08:27:33.913Z,48.70
2019-05-12T08:30:06.298Z,51.00
2019-05-12T08:32:37.914Z,51.60
2019-05-12T08:35:09.539Z,52.70
2019-05-12T08:37:43.938Z,50.80
2019-05-12T08:40:15.540Z,49.30
2019-05-12T08:42:47.586Z,51.20
2019-05-12T08:45:25.693Z,52.80
2019-05-12T08:47:54.610Z,51.20
2019-05-12T08:50:31.506Z,49.40
2019-05-12T08:52:58.897Z,49.40
2019-05-12T08:55:31.566Z,50.50
2019-05-12T08:58:03.871Z,50.00
2019-05-12T09:00:46.500Z,49.20
2019-05-12T09:03:14.095Z,50.20
2019-05-12T09:05:46.487Z,48.70
2019-05-12T09:08:18.534Z,49.90
2019-05-12T09:10:52.323Z,50.60
2019-05-12T09:13:24.202Z,50.80
2019-05-12T09:15:55.813Z,51.50
2019-05-12T09:18:33.762Z,52.90
2019-05-12T09:21:00.246Z,52.90
2019-05-12T09:23:41.195Z,52.50
2019-05-12T09:26:06.256Z,52.90
2019-05-12T09:28:47.342Z,52.70
2019-05-12T09:31:10.827Z,52.20
2019-05-12T09:33:44.453Z,52.40
2019-05-12T09:36:19.665Z,50.80
2019-05-12T09:38:53.684Z,51.50
2019-05-12T09:41:23.917Z,50.40
2019-05-12T09:43:56.497Z,50.00
2019-05-12T09:46:33.088Z,50.40
2019-05-12T09:49:03.910Z,50.80
2019-05-12T09:51:41.467Z,51.00
2019-05-12T09:54:07.592Z,51.30
2019-05-12T09:56:41.210Z,52.00
2019-05-12T09:59:18.999Z,51.70
2019-05-12T10:01:46.063Z,52.90
2019-05-12T10:04:19.690Z,53.60
2019-05-12T10:06:53.353Z,53.40
2019-05-12T10:09:24.539Z,53.90
2019-05-12T10:12:00.559Z,54.20
2019-05-12T10:14:33.213Z,53.50
2019-05-12T10:17:04.804Z,54.20
2019-05-12T10:19:36.554Z,53.80
2019-05-12T10:22:08.259Z,54.00
2019-05-12T10:24:42.964Z,53.60
2019-05-12T10:27:13.874Z,53.70
2019-05-12T10:29:45.613Z,54.30
2019-05-12T10:32:17.565Z,54.50
2019-05-12T10:34:51.115Z,54.20
2019-05-12T10:37:25.376Z,52.90
2019-05-12T10:39:55.495Z,53.60
2019-05-12T10:42:27.442Z,53.70
2019-05-12T10:44:59.002Z,54.40
2019-05-12T10:47:30.924Z,55.00
2019-05-12T10:50:02.712Z,54.80
2019-05-12T10:52:38.833Z,54.40
2019-05-12T10:55:10.842Z,54.60
2019-05-12T10:57:43.968Z,55.00
2019-05-12T11:00:19.903Z,55.10
2019-05-12T11:02:49.928Z,55.10
2019-05-12T11:05:23.311Z,54.80
2019-05-12T11:07:54.746Z,55.00
2019-05-12T11:10:26.507Z,55.40
2019-05-12T11:12:59.265Z,55.60
2019-05-12T11:15:33.927Z,55.90
2019-05-12T11:18:06.294Z,56.10
2019-05-12T11:20:38.275Z,55.90
2019-05-12T11:23:10.106Z,56.00
2019-05-12T11:25:43.864Z,56.30
2019-05-12T11:28:14.991Z,56.30
2019-05-12T11:30:49.820Z,56.60
2019-05-12T11:33:23.673Z,56.70
2019-05-12T11:35:54.801Z,56.40
2019-05-12T11:38:26.637Z,56.20
2019-05-12T11:40:58.305Z,56.80
2019-05-12T11:43:30.348Z,57.00
2019-05-12T11:46:02.208Z,57.20
2019-05-12T11:48:34.176Z,57.10
2019-05-12T11:51:05.847Z,57.20
2019-05-12T11:53:37.819Z,57.10
2019-05-12T11:56:13.754Z,57.30
2019-05-12T11:58:47.385Z,57.00
2019-05-12T12:01:17.869Z,57.00
2019-05-12T12:03:49.813Z,57.30
2019-05-12T12:06:23.902Z,57.40
2019-05-12T12:08:54.753Z,56.80
2019-05-12T12:11:28.464Z,57.40
2019-05-12T12:14:00.143Z,57.30
2019-05-12T12:16:34.084Z,57.70
2019-05-12T12:19:06.160Z,57.70
2019-05-12T12:21:40.422Z,57.50
2019-05-12T12:24:13.073Z,57.70
2019-05-12T12:26:44.543Z,57.80
2019-05-12T12:29:16.742Z,57.80
2019-05-12T12:31:49.653Z,57.90
2019-05-12T12:34:25.497Z,57.90
2019-05-12T12:36:55.049Z,58.60
2019-05-12T12:39:26.837Z,58.00
2019-05-12T12:42:00.551Z,58.00
2019-05-12T12:44:33.942Z,58.10
2019-05-12T12:47:04.397Z,58.80
2019-05-12T12:49:40.064Z,58.30
2019-05-12T12:52:09.219Z,58.30
2019-05-12T12:54:41.209Z,58.30
2019-05-12T12:57:13.638Z,58.40
2019-05-12T12:59:50.985Z,58.30
2019-05-12T13:02:18.653Z,58.30
2019-05-12T13:04:50.661Z,58.40
2019-05-12T13:07:24.018Z,58.50
2019-05-12T13:10:04.619Z,58.50
2019-05-12T13:12:31.736Z,58.60
2019-05-12T13:15:03.704Z,58.60
2019-05-12T13:17:41.795Z,58.70
2019-05-12T13:20:10.680Z,58.70
2019-05-12T13:22:44.228Z,58.70
2019-05-12T13:25:15.398Z,58.90
2019-05-12T13:27:47.053Z,58.90
2019-05-12T13:30:21.351Z,58.80
2019-05-12T13:32:51.941Z,58.80
2019-05-12T13:35:23.809Z,58.90
2019-05-12T13:38:00.298Z,58.90
2019-05-12T13:40:29.934Z,58.90
2019-05-12T13:43:03.729Z,59.00
2019-05-12T13:45:34.901Z,58.90
2019-05-12T13:48:09.653Z,59.10
2019-05-12T13:50:39.772Z,59.10
2019-05-12T13:53:13.668Z,59.20
2019-05-12T13:55:48.219Z,59.20
2019-05-12T13:58:17.860Z,59.40
2019-05-12T14:01:08.070Z,59.40
2019-05-12T14:03:22.580Z,59.40
2019-05-12T14:05:55.256Z,59.90
2019-05-12T14:08:27.133Z,59.50
2019-05-12T14:10:59.780Z,59.50
2019-05-12T14:13:33.784Z,59.50
2019-05-12T14:16:06.651Z,59.60
2019-05-12T14:18:38.806Z,59.70
2019-05-12T14:21:10.341Z,59.70
2019-05-12T14:23:43.648Z,59.80
2019-05-12T14:26:15.046Z,59.80
2019-05-12T14:28:49.552Z,59.90
2019-05-12T14:31:29.233Z,60.00
2019-05-12T14:33:53.871Z,60.20
2019-05-12T14:36:26.693Z,60.20
2019-05-12T14:39:00.150Z,60.30
2019-05-12T14:41:31.649Z,60.40
2019-05-12T14:44:03.800Z,60.50
2019-05-12T14:46:40.163Z,60.70
2019-05-12T14:49:08.610Z,60.80
2019-05-12T14:51:40.184Z,60.80
2019-05-12T14:54:13.409Z,60.90
2019-05-12T14:56:55.530Z,60.90
2019-05-12T14:59:20.572Z,60.90
2019-05-12T15:01:59.087Z,61.10
2019-05-12T15:04:29.696Z,61.10
2019-05-12T15:07:05.879Z,61.20
2019-05-12T15:09:37.548Z,61.20
2019-05-12T15:12:09.476Z,61.30
2019-05-12T15:14:41.275Z,61.40
2019-05-12T15:17:21.985Z,61.40
2019-05-12T15:19:46.469Z,61.60
2019-05-12T15:22:18.295Z,61.50
2019-05-12T15:24:54.490Z,61.50
2019-05-12T15:27:39.203Z,61.50
2019-05-12T15:29:59.365Z,61.80
2019-05-12T15:32:31.473Z,61.90
2019-05-12T15:35:04.272Z,62.00
2019-05-12T15:37:39.015Z,62.20
2019-05-12T15:40:09.216Z,62.50
2019-05-12T15:42:40.975Z,62.50
2019-05-12T15:45:16.221Z,62.40
2019-05-12T15:47:45.603Z,62.50
2019-05-12T15:50:17.274Z,62.60
2019-05-12T15:52:49.082Z,62.50
2019-05-12T15:55:25.187Z,62.60
2019-05-12T15:57:53.893Z,62.60
2019-05-12T16:00:25.740Z,62.60
2019-05-12T16:02:57.718Z,62.60
2019-05-12T16:05:31.121Z,62.50
2019-05-12T16:08:03.641Z,62.60
2019-05-12T16:10:35.601Z,62.60
2019-05-12T16:13:07.459Z,62.60
2019-05-12T16:15:39.122Z,62.60
2019-05-12T16:18:11.244Z,63.00
2019-05-12T16:20:45.309Z,62.70
2019-05-12T16:23:28.030Z,62.80
2019-05-12T16:25:49.926Z,62.80
2019-05-12T16:28:25.915Z,62.90
2019-05-12T16:30:58.848Z,62.90
2019-05-12T16:33:27.910Z,63.00
2019-05-12T16:36:00.037Z,63.00
2019-05-12T16:38:32.615Z,63.20
2019-05-12T16:41:04.298Z,63.20
2019-05-12T16:43:36.734Z,63.30
2019-05-12T16:46:08.563Z,63.30
2019-05-12T16:48:42.134Z,63.30
2019-05-12T16:51:13.828Z,63.40
2019-05-12T16:53:46.007Z,63.50
2019-05-12T16:56:19.926Z,63.50
2019-05-12T16:58:50.425Z,63.70
2019-05-12T17:01:26.057Z,63.70
2019-05-12T17:03:55.340Z,63.80
2019-05-12T17:06:28.594Z,63.70
2019-05-12T17:09:00.487Z,63.90
2019-05-12T17:11:39.242Z,64.10
2019-05-12T17:14:05.243Z,64.10
2019-05-12T17:16:42.071Z,64.10
2019-05-12T17:19:10.734Z,64.20
2019-05-12T17:21:44.098Z,64.40
2019-05-12T17:24:16.211Z,64.50
2019-05-12T17:26:47.946Z,64.70
2019-05-12T17:29:20.017Z,64.80
2019-05-12T17:31:53.426Z,65.00
2019-05-12T17:34:26.518Z,65.10
2019-05-12T17:37:00.356Z,65.20
2019-05-12T17:39:37.408Z,65.50
2019-05-12T17:42:06.527Z,65.60
2019-05-12T17:44:39.059Z,65.70
2019-05-12T17:47:15.314Z,65.70
2019-05-12T17:49:44.046Z,65.80
2019-05-12T17:52:18.299Z,65.90
2019-05-12T17:54:49.028Z,66.00
2019-05-12T17:57:20.804Z,66.10
2019-05-12T17:59:54.523Z,65.80
2019-05-12T18:02:26.005Z,66.20
2019-05-12T18:05:01.019Z,66.10
2019-05-12T18:07:30.670Z,66.00
2019-05-12T18:10:04.192Z,66.00
2019-05-12T18:12:44.424Z,65.80
2019-05-12T18:15:09.137Z,65.90
2019-05-12T18:17:47.615Z,65.80
2019-05-12T18:20:14.336Z,65.70
2019-05-12T18:22:47.125Z,65.70
2019-05-12T18:25:24.180Z,65.70
2019-05-12T18:27:54.262Z,65.70
2019-05-12T18:30:25.475Z,65.60
2019-05-12T18:33:04.339Z,65.80
2019-05-12T18:35:30.475Z,65.80
2019-05-12T18:38:06.814Z,65.80
2019-05-12T18:40:35.092Z,65.70
2019-05-12T18:43:07.009Z,65.70
2019-05-12T18:45:38.952Z,65.70
2019-05-12T18:48:19.904Z,65.80
2019-05-12T18:50:44.165Z,65.90
2019-05-12T18:53:27.511Z,66.10
2019-05-12T18:55:49.046Z,66.00
2019-05-12T18:58:21.747Z,66.10
2019-05-12T19:00:54.190Z,66.10
2019-05-12T19:03:25.793Z,66.10
2019-05-12T19:05:58.291Z,66.20
2019-05-12T19:08:30.156Z,66.20
2019-05-12T19:11:17.939Z,66.20
2019-05-12T19:13:35.067Z,66.30
2019-05-12T19:16:07.469Z,66.40
2019-05-12T19:18:39.722Z,66.40
2019-05-12T19:21:16.641Z,66.40
2019-05-12T19:23:46.691Z,66.50
2019-05-12T19:26:18.730Z,66.50
2019-05-12T19:28:52.982Z,66.70
2019-05-12T19:31:24.802Z,66.60
2019-05-12T19:34:14.784Z,66.60
2019-05-12T19:36:29.356Z,66.60
2019-05-12T19:39:03.205Z,66.70
2019-05-12T19:41:36.471Z,66.60
2019-05-12T19:44:07.300Z,66.60
2019-05-12T19:46:39.926Z,66.60
2019-05-12T19:49:12.323Z,66.60
2019-05-12T19:51:44.232Z,66.50
2019-05-12T19:54:19.381Z,66.50
2019-05-12T19:56:49.103Z,66.50
2019-05-12T19:59:20.722Z,66.50
2019-05-12T20:01:53.589Z,66.60
2019-05-12T20:04:33.111Z,66.40
2019-05-12T20:06:58.536Z,66.40
2019-05-12T20:09:30.111Z,66.50
2019-05-12T20:12:07.839Z,66.50
2019-05-12T20:14:34.757Z,67.30
2019-05-12T20:17:06.544Z,66.60
2019-05-12T20:19:38.381Z,66.50
2019-05-12T20:22:10.030Z,66.40
2019-05-12T20:24:43.866Z,66.30
2019-05-12T20:27:17.263Z,66.40
2019-05-12T20:29:47.975Z,66.40
2019-05-12T20:32:19.627Z,66.40
2019-05-12T20:34:54.523Z,66.50
2019-05-12T20:37:24.160Z,66.50
2019-05-12T20:40:01.949Z,66.70
2019-05-12T20:42:33.678Z,66.70
2019-05-12T20:45:06.402Z,66.70
2019-05-12T20:47:38.916Z,66.80
2019-05-12T20:50:11.290Z,66.80
2019-05-12T20:52:48.761Z,66.70
2019-05-12T20:55:16.189Z,66.70
2019-05-12T20:57:52.159Z,66.70
2019-05-12T21:00:21.329Z,66.80
2019-05-12T21:02:53.914Z,66.70
2019-05-12T21:05:25.740Z,66.70
2019-05-12T21:08:03.752Z,66.80
2019-05-12T21:10:30.624Z,66.80
2019-05-12T21:13:02.691Z,66.90
2019-05-12T21:15:37.273Z,67.30
2019-05-12T21:18:07.644Z,67.50
2019-05-12T21:20:39.188Z,67.60
2019-05-12T21:23:13.393Z,67.80
2019-05-12T21:25:52.109Z,67.80
2019-05-12T21:28:17.839Z,68.00
2019-05-12T21:30:49.932Z,67.80
2019-05-12T21:33:23.862Z,68.30
2019-05-12T21:35:54.811Z,68.30
2019-05-12T21:38:29.598Z,69.20
2019-05-12T21:41:02.206Z,69.80
2019-05-12T21:43:32.641Z,70.40
2019-05-12T21:46:07.722Z,70.30
2019-05-12T21:48:37.438Z,71.40
2019-05-12T21:51:15.440Z,70.70
2019-05-12T21:53:43.720Z,70.50
2019-05-12T21:56:15.183Z,70.40
2019-05-12T21:58:53.664Z,70.60
2019-05-12T22:01:20.162Z,70.90
2019-05-12T22:03:58.048Z,71.00
2019-05-12T22:06:25.168Z,71.40
2019-05-12T22:09:01.267Z,71.40
2019-05-12T22:11:31.592Z,71.00
2019-05-12T22:14:04.583Z,71.00
2019-05-12T22:16:43.789Z,70.60
2019-05-12T22:19:10.970Z,70.80
2019-05-12T22:21:49.063Z,70.90
2019-05-12T22:24:16.079Z,71.20
2019-05-12T22:26:48.221Z,72.30
2019-05-12T22:29:21.354Z,71.90
2019-05-12T22:31:54.061Z,72.00
2019-05-12T22:34:27.585Z,72.80
2019-05-12T22:36:59.354Z,72.10
2019-05-12T22:39:33.929Z,72.10
2019-05-12T22:42:03.989Z,72.10
2019-05-12T22:44:35.966Z,72.00
2019-05-12T22:47:12.877Z,72.50
2019-05-12T22:49:41.005Z,73.00
2019-05-12T22:52:13.650Z,72.30
2019-05-12T22:54:46.842Z,73.30
2019-05-12T22:57:18.568Z,73.50
2019-05-12T22:59:50.450Z,74.50
2019-05-12T23:02:25.399Z,74.90
2019-05-12T23:04:55.659Z,73.00
2019-05-12T23:07:29.682Z,74.40
2019-05-12T23:10:05.705Z,73.90
2019-05-12T23:12:34.315Z,74.00
2019-05-12T23:15:07.472Z,73.70
2019-05-12T23:17:44.195Z,74.30
2019-05-12T23:20:13.696Z,73.90
2019-05-12T23:22:45.306Z,73.50
2019-05-12T23:25:21.451Z,73.80
2019-05-12T23:27:51.181Z,73.30
2019-05-12T23:30:50.271Z,73.20
2019-05-12T23:33:23.801Z,73.00
2019-05-12T23:35:55.280Z,72.90
2019-05-12T23:38:27.141Z,72.60
2019-05-12T23:40:59.053Z,72.60
2019-05-12T23:43:30.582Z,72.60
2019-05-12T23:46:04.019Z,72.30
2019-05-12T23:48:35.121Z,72.10
2019-05-12T23:51:06.784Z,72.10
2019-05-12T23:53:38.742Z,71.80
2019-05-12T23:56:10.633Z,71.70
2019-05-12T23:58:43.325Z,71.50
